Wednesday, May 23, 2018, 8:57 AM EDT
Back to Local

KBGR, Bangor Int'l Airport

Location: Bangor, ME, United States Lat: 44.8
Local Time: 8:57 AM EDT (12:57 GMT) Lon: -68.817
Time Zone: US/Eastern Elev: 193 ft

Show me the last for .
Show Coded

Time T Td Feel RH Dir Speed Gust Alt SLP Vis Weather Sky Remarks
2018-05-23 07:53 57 51 - 80 - Calm - 29.84 29.83 10 SCT013 BKN040 6-hr Precip Total (8am): 0.00"
24-hr Precip Total (8am): 0.01"
6-hr Min Temp (8am): 53.1°F
6-hr Max Temp (8am): 57.0°F
2018-05-23 07:38 56 51 - 83 200° 5 - 29.84 - 10 FEW016 SCT040 None
2018-05-23 06:53 54 50 - 86 200° 5 - 29.84 29.83 10 BKN016 BKN040 None
2018-05-23 05:53 53 50 - 89 200° 5 - 29.84 29.83 10 FEW019 FEW026 BKN039 None
2018-05-23 04:53 53 50 - 89 180° 5 - 29.84 29.83 10 BKN044 OVC080 1-hr Precip Total: Trace
6-hr Precip Total (5am): 0.00"
2018-05-23 03:53 53 51 - 92 170° 5 - 29.85 29.84 10 BKN046 OVC080 1-hr Precip Total: Trace
2018-05-23 02:53 54 51 - 89 160° 6 - 29.86 29.85 10 -RA OVC055 1-hr Precip Total: Trace
2018-05-23 01:53 54 51 - 89 180° 5 - 29.88 29.87 10 OVC055 6-hr Precip Total (2am): 0.01"
6-hr Min Temp (2am): 54.0°F
6-hr Max Temp (2am): 61.0°F
2018-05-23 00:53 55 51 - 86 190° 8 - 29.89 29.88 10 FEW046 OVC060 24-hr Min Temp (1am): 45.0°F
24-hr Max Temp (1am): 71.1°F
2018-05-22 23:53 56 51 - 83 180° 8 - 29.90 29.89 10 OVC070 None
2018-05-22 22:53 56 52 - 86 170° 9 - 29.92 29.92 10 FEW055 OVC070 1-hr Precip Total: 0.01"
6-hr Precip Total (11pm): 0.01"
2018-05-22 21:53 58 51 - 77 170° 7 - 29.96 29.95 10 -RA OVC070 1-hr Precip Total: Trace
2018-05-22 20:53 60 50 - 69 170° 5 - 29.97 29.96 10 OVC080 1-hr Precip Total: Trace
2018-05-22 19:53 61 49 - 64 180° 8 - 29.99 29.98 10 OVC085 6-hr Min Temp (8pm): 61.0°F
6-hr Max Temp (8pm): 71.1°F
2018-05-22 18:53 63 48 - 58 190° 10 - 30.00 29.99 10 BKN100 OVC200 None
2018-05-22 17:53 65 46 - 50 180° 13 - 30.00 30.00 10 BKN120 OVC200 None
2018-05-22 16:53 69 45 - 41 170° 13 - 30.02 30.01 10 BKN120 OVC200 None
2018-05-22 15:53 69 40 - 34 170° 12 22 30.04 30.04 10 BKN120 OVC200 None
2018-05-22 14:53 70 38 - 30 200° 14 - 30.07 30.06 10 BKN120 OVC200 None
2018-05-22 13:53 68 35 - 29 150° 13 - 30.11 30.10 10 SCT120 BKN200 6-hr Min Temp (2pm): 53.1°F
6-hr Max Temp (2pm): 71.1°F
2018-05-22 12:53 69 33 - 26 190° 15 20 30.12 30.12 10 SCT120 BKN200 None
2018-05-22 11:53 69 33 - 26 210° 15 - 30.15 30.14 10 BKN120 OVC200 Breaks in overcast
2018-05-22 10:53 66 33 - 29 180° 9 - 30.17 30.16 10 BKN120 OVC200 Breaks in overcast
2018-05-22 09:53 62 32 - 32 190° 9 - 30.18 30.17 10 FEW150 BKN200 None

Support USWX by starting your Amazon purchase here.